M I D A S
Marine Information and Data Acquisition System
Tripno 1543 of the Zeeleeuw from 2008-08-25 07:15:02 to 2008-08-25 13:13:50
Back to CruiseResearch ActivitiesStationsMapUnderway DataData graphs

EquipmentUnitsComments
TimeDGPSUTC
LatitudeDGPSDM.mWGS84
LongitudeDGPSDM.mWGS84
SpeedMeteo Stationm/sRelative wind speed
DirectionMeteo StationdegRelative wind direction
TemperatureMeteo Stationdeg CelciusAir temperature
PressureMeteo StationPaAtmospheric pressure
HumidityMeteo Station%Relative humidity
Missing or incorrect values are displayed as -999
Metereological data collected by the RV Zeeleeuw from 2008-08-25 07:15:39 to 2008-08-25 13:24:30
Time Latitude Longitude Speed Direction Temperature Pressure Humidity
2008-08-25 07:16 51°13.637 2°55.995 -999 -999 -999 -999 -999
2008-08-25 07:17 51°13.664 2°55.886 -999 -999 -999 -999 -999
2008-08-25 07:18 51°13.685 2°55.79 3.4 32 -999 -999 -999
2008-08-25 07:19 51°13.695 2°55.767 4.6 74 15.1 101390 100
2008-08-25 07:20 51°13.697 2°55.758 1.3 81 15.2 101390 -999
2008-08-25 07:21 51°13.77 2°55.7 3.2 280 15.3 101390 -999
2008-08-25 07:22 51°13.88 2°55.605 3.2 281 15.4 101390 -999
2008-08-25 07:23 51°14.007 2°55.507 4.4 279 15.5 101380 -999
2008-08-25 07:24 51°14.133 2°55.405 3.5 283 15.5 101380 100
2008-08-25 07:25 51°14.25 2°55.27 6 284 15.6 101390 99
2008-08-25 07:26 51°14.36 2°55.077 7.9 285 15.6 101380 98
2008-08-25 07:27 51°14.494 2°54.867 9.2 280 15.6 101380 98
2008-08-25 07:28 51°14.603 2°54.624 9.5 281 15.7 101370 98
2008-08-25 07:29 51°14.688 2°54.386 9 281 15.7 101360 98
2008-08-25 07:30 51°14.755 2°54.14 9 281 15.8 101370 98
2008-08-25 07:31 51°14.8 2°53.887 10.5 281 15.8 101360 97
2008-08-25 07:32 51°14.819 2°53.624 10.9 284 15.8 101370 97
2008-08-25 07:33 51°14.842 2°53.36 9.6 279 15.8 101370 97
2008-08-25 07:34 51°14.87 2°53.097 11.1 280 15.8 101360 97
2008-08-25 07:35 51°14.897 2°52.834 10.2 277 15.9 101360 97
2008-08-25 07:36 51°14.924 2°52.572 10 276 15.9 101360 97
2008-08-25 07:37 51°14.948 2°52.305 12.5 281 15.9 101360 96
2008-08-25 07:38 51°14.979 2°52.013 11 280 15.9 101360 96
2008-08-25 07:39 51°15.004 2°51.71 12.7 281 15.9 101360 96
2008-08-25 07:40 51°15.037 2°51.406 11.8 282 15.9 101360 96
2008-08-25 07:41 51°15.063 2°51.104 11.3 276 16 101350 96
2008-08-25 07:42 51°15.097 2°50.804 10.1 278 16 101360 96
2008-08-25 07:43 51°15.155 2°50.508 12.4 282 16.1 101350 96
2008-08-25 07:44 51°15.212 2°50.212 13.6 281 16.1 101350 95
2008-08-25 07:45 51°15.267 2°49.911 12.2 281 16.1 101350 95
2008-08-25 07:46 51°15.315 2°49.617 11.9 277 16.1 101350 95
2008-08-25 07:47 51°15.384 2°49.326 12.9 280 16.2 101350 95
2008-08-25 07:48 51°15.449 2°49.033 12.1 283 16.2 101340 95
2008-08-25 07:49 51°15.513 2°48.742 14.5 282 16.2 101340 95
2008-08-25 07:50 51°15.574 2°48.448 14.3 285 16.2 101340 95
2008-08-25 07:51 51°15.635 2°48.151 14.5 280 16.2 101340 95
2008-08-25 07:52 51°15.698 2°47.854 11.9 276 16.2 101340 94
2008-08-25 07:53 51°15.758 2°47.558 14 281 16.2 101340 94
2008-08-25 07:54 51°15.813 2°47.258 13.8 281 16.2 101340 94
2008-08-25 07:55 51°15.878 2°46.971 13.3 282 16.3 101340 94
2008-08-25 07:56 51°15.944 2°46.679 12.9 286 16.3 101340 94
2008-08-25 07:57 51°16.013 2°46.391 12.8 281 16.3 101350 95
2008-08-25 07:58 51°16.111 2°46.118 11.2 281 16.3 101350 95
2008-08-25 07:59 51°16.213 2°45.844 13.1 281 16.3 101350 95
2008-08-25 08:00 51°16.312 2°45.562 13.5 282 16.4 101340 95
2008-08-25 08:01 51°16.412 2°45.285 10.7 281 16.4 101350 95
2008-08-25 08:02 51°16.505 2°45.009 11 283 16.5 101360 95
2008-08-25 08:03 51°16.607 2°44.733 11.7 279 16.5 101350 94
2008-08-25 08:04 51°16.705 2°44.454 11 282 16.5 101360 95
2008-08-25 08:05 51°16.809 2°44.18 14.1 285 16.5 101350 94
2008-08-25 08:06 51°16.914 2°43.905 13.1 280 16.6 101350 94
2008-08-25 08:07 51°17.02 2°43.633 13.4 280 16.6 101360 95
2008-08-25 08:08 51°17.13 2°43.358 14.1 283 16.6 101350 94
2008-08-25 08:09 51°17.244 2°43.095 12.8 285 16.6 101350 93
2008-08-25 08:10 51°17.358 2°42.841 12.2 277 16.7 101350 93
2008-08-25 08:11 51°17.487 2°42.592 12 279 16.7 101370 93
2008-08-25 08:12 51°17.614 2°42.336 13.2 276 16.8 101360 94
2008-08-25 08:13 51°17.735 2°42.088 10.6 280 16.8 101350 93
2008-08-25 08:14 51°17.871 2°41.848 14.7 282 16.8 101350 93
2008-08-25 08:15 51°17.998 2°41.596 13.7 280 16.8 101360 92
2008-08-25 08:16 51°18.123 2°41.344 12.7 286 16.8 101350 92
2008-08-25 08:17 51°18.248 2°41.088 12.6 282 16.9 101350 92
2008-08-25 08:18 51°18.372 2°40.849 15.1 281 16.9 101350 91
2008-08-25 08:19 51°18.486 2°40.592 11.8 279 16.9 101350 91
2008-08-25 08:20 51°18.6 2°40.33 13.2 279 16.9 101360 91
2008-08-25 08:21 51°18.714 2°40.068 13.5 280 16.9 101350 91
2008-08-25 08:22 51°18.838 2°39.818 13.1 281 16.9 101360 91
2008-08-25 08:23 51°18.947 2°39.551 16.3 282 16.9 101350 91
2008-08-25 08:24 51°19.041 2°39.272 13.4 279 16.9 101350 90
2008-08-25 08:25 51°19.141 2°38.992 15.9 279 16.9 101340 91
2008-08-25 08:26 51°19.241 2°38.722 14.8 280 16.9 101350 90
2008-08-25 08:27 51°19.344 2°38.447 14 284 16.9 101340 90
2008-08-25 08:28 51°19.452 2°38.169 12.6 281 17 101340 91
2008-08-25 08:29 51°19.558 2°37.903 15 284 17 101340 90
2008-08-25 08:30 51°19.667 2°37.638 11.4 279 17 101340 90
2008-08-25 08:31 51°19.764 2°37.404 13.9 282 17.1 101340 90
2008-08-25 08:32 51°19.849 2°37.2 12.3 283 17.1 101350 89
2008-08-25 08:33 51°19.926 2°37.029 11.3 282 17.1 101340 89
2008-08-25 08:34 51°19.997 2°36.915 10.4 278 17.2 101360 89
2008-08-25 08:35 51°20.051 2°36.897 9.1 280 17.3 101380 89
2008-08-25 08:36 51°20.083 2°36.895 13.1 284 17.2 101370 87
2008-08-25 08:37 51°20.105 2°36.911 10.3 280 17.2 101370 87
2008-08-25 08:38 51°20.124 2°36.932 8.9 280 17.3 101380 87
2008-08-25 08:39 51°20.143 2°36.957 12.9 281 17.3 101380 87
2008-08-25 08:40 51°20.16 2°36.985 6.7 283 17.3 101380 86
2008-08-25 08:41 51°20.201 2°37.006 9.9 78 17.3 101370 86
2008-08-25 08:42 51°20.24 2°37.106 9.6 18 17.1 101400 85
2008-08-25 08:43 51°20.188 2°37.168 12.7 285 17.1 101380 86
2008-08-25 08:44 51°20.106 2°37.094 12.5 283 17.1 101370 86
2008-08-25 08:45 51°20.028 2°36.979 13.9 281 17.1 101360 86
2008-08-25 08:46 51°20.01 2°36.904 13.5 283 17.1 101370 87
2008-08-25 08:47 51°20.032 2°36.881 10.6 284 17 101370 86
2008-08-25 08:48 51°20.056 2°36.882 9.9 281 17.2 101380 87
2008-08-25 08:49 51°20.077 2°36.897 10.1 282 17.3 101390 87
2008-08-25 08:50 51°20.103 2°36.902 12.2 286 17.3 101410 86
2008-08-25 08:51 51°20.127 2°36.914 13.4 283 17.2 101400 85
2008-08-25 08:52 51°20.149 2°36.871 13.8 285 17.3 101390 86
2008-08-25 08:53 51°20.091 2°36.732 16.1 280 17.2 101390 85
2008-08-25 08:54 51°19.997 2°36.507 15.1 280 17.1 101360 84
2008-08-25 08:55 51°19.9 2°36.282 15.5 283 17.1 101380 85
2008-08-25 08:56 51°19.925 2°36.171 12.7 282 17.1 101370 86
2008-08-25 08:57 51°19.969 2°36.139 12.4 284 17.2 101390 87
2008-08-25 08:58 51°20.001 2°36.129 12.5 279 17.2 101380 86
2008-08-25 08:59 51°20.031 2°36.119 11.1 278 17.3 101380 86
2008-08-25 09:00 51°20.061 2°36.117 11.4 281 17.3 101390 86
2008-08-25 09:01 51°20.085 2°36.122 8.4 279 17.4 101390 86
2008-08-25 09:02 51°20.106 2°36.137 11.8 280 17.4 101390 85
2008-08-25 09:03 51°20.123 2°36.165 6.2 280 17.3 101380 84
2008-08-25 09:04 51°20.134 2°36.196 10.1 283 17.3 101390 84
2008-08-25 09:05 51°20.142 2°36.225 11 78 17.3 101400 85
2008-08-25 09:06 51°20.15 2°36.251 9.3 80 17.3 101390 86
2008-08-25 09:07 51°20.159 2°36.274 10.7 81 17.2 101400 86
2008-08-25 09:08 51°20.168 2°36.297 8.9 77 17.1 101400 85
2008-08-25 09:09 51°20.184 2°36.319 10.1 82 17.1 101400 86
2008-08-25 09:10 51°20.225 2°36.358 5.8 81 17.1 101410 87
2008-08-25 09:11 51°20.239 2°36.459 11.4 17 17.2 101410 87
2008-08-25 09:12 51°20.2 2°36.554 9.5 7 17.2 101400 86
2008-08-25 09:13 51°20.154 2°36.661 12.1 11 17.2 101400 86
2008-08-25 09:14 51°20.129 2°36.757 8.6 32 17.2 101400 86
2008-08-25 09:15 51°20.151 2°36.852 6.9 81 17.2 101410 87
2008-08-25 09:16 51°20.195 2°36.894 9.5 77 17.2 101400 86
2008-08-25 09:17 51°20.213 2°36.911 7.2 278 17.1 101390 84
2008-08-25 09:18 51°20.228 2°36.933 9.5 280 17.2 101400 83
2008-08-25 09:19 51°20.241 2°36.955 12.3 277 17.3 101400 83
2008-08-25 09:20 51°20.253 2°36.98 7 281 17.4 101410 83
2008-08-25 09:21 51°20.263 2°37.006 7.3 279 17.5 101400 83
2008-08-25 09:22 51°20.284 2°37.019 12.8 279 17.5 101400 82
2008-08-25 09:23 51°20.31 2°36.983 10.8 280 17.4 101390 81
2008-08-25 09:24 51°20.302 2°36.926 11.3 276 17.5 101390 81
2008-08-25 09:25 51°20.277 2°36.878 11.7 281 17.4 101390 80
2008-08-25 09:26 51°20.265 2°36.851 12.1 281 17.5 101400 81
2008-08-25 09:27 51°20.263 2°36.838 10.2 279 17.5 101400 80
2008-08-25 09:28 51°20.27 2°36.837 9.2 277 17.5 101400 81
2008-08-25 09:29 51°20.284 2°36.844 10.5 279 17.5 101400 81
2008-08-25 09:30 51°20.303 2°36.86 9.7 278 17.5 101400 81
2008-08-25 09:31 51°20.32 2°36.879 10.2 284 17.5 101400 81
2008-08-25 09:32 51°20.336 2°36.899 6.8 280 17.6 101410 81
2008-08-25 09:33 51°20.352 2°36.917 7.2 286 17.6 101410 81
2008-08-25 09:34 51°20.38 2°36.911 12 285 17.6 101400 80
2008-08-25 09:35 51°20.404 2°36.88 10.6 281 17.6 101400 80
2008-08-25 09:36 51°20.415 2°36.843 9.8 280 17.5 101390 79
2008-08-25 09:37 51°20.406 2°36.824 9.9 283 17.5 101400 79
2008-08-25 09:38 51°20.386 2°36.846 9.5 6 17.5 101400 81
2008-08-25 09:39 51°20.369 2°36.886 8.7 5 17.4 101390 81
2008-08-25 09:40 51°20.355 2°36.919 8.3 4 17.4 101390 82
2008-08-25 09:41 51°20.342 2°36.946 10.5 1 17.4 101390 83
2008-08-25 09:42 51°20.329 2°36.97 9.4 360 17.4 101390 81
2008-08-25 09:43 51°20.315 2°36.997 10.5 4 17.4 101390 80
2008-08-25 09:44 51°20.303 2°37.021 9.2 358 17.3 101400 79
2008-08-25 09:45 51°20.291 2°37.043 8.6 355 17.4 101390 80
2008-08-25 09:46 51°20.277 2°37.063 10.3 357 17.5 101400 82
2008-08-25 09:47 51°20.265 2°37.085 9.8 358 17.4 101390 80
2008-08-25 09:48 51°20.261 2°37.103 9.9 358 17.4 101400 81
2008-08-25 09:49 51°20.265 2°37.123 7.1 7 17.4 101390 80
2008-08-25 09:50 51°20.271 2°37.144 7.8 8 17.5 101400 82
2008-08-25 09:51 51°20.28 2°37.164 8.7 19 17.5 101410 82
2008-08-25 09:52 51°20.29 2°37.182 8.5 18 17.5 101410 81
2008-08-25 09:53 51°20.302 2°37.2 9.5 22 17.5 101410 81
2008-08-25 09:54 51°20.314 2°37.219 9.8 24 17.5 101410 80
2008-08-25 09:55 51°20.326 2°37.237 11.1 25 17.5 101420 79
2008-08-25 09:56 51°20.337 2°37.254 11.2 24 17.6 101420 78
2008-08-25 09:57 51°20.345 2°37.277 9.4 15 17.6 101420 78
2008-08-25 09:58 51°20.336 2°37.308 9.4 4 17.6 101410 77
2008-08-25 09:59 51°20.317 2°37.327 12.2 350 17.6 101410 77
2008-08-25 10:00 51°20.292 2°37.32 9.8 280 17.5 101410 76
2008-08-25 10:01 51°20.277 2°37.268 10.5 281 17.7 101400 77
2008-08-25 10:02 51°20.274 2°37.191 10.7 283 17.7 101410 77
2008-08-25 10:03 51°20.253 2°37.121 11.1 286 17.8 101420 78
2008-08-25 10:04 51°20.226 2°37.075 11 283 17.8 101430 77
2008-08-25 10:05 51°20.219 2°37.077 9.4 360 17.7 101420 76
2008-08-25 10:06 51°20.222 2°37.096 8.9 15 17.7 101420 78
2008-08-25 10:07 51°20.229 2°37.116 9.6 18 17.7 101430 78
2008-08-25 10:08 51°20.238 2°37.134 8.8 21 17.7 101430 78
2008-08-25 10:09 51°20.247 2°37.15 11.8 18 17.7 101430 77
2008-08-25 10:10 51°20.258 2°37.167 10.5 19 17.7 101430 76
2008-08-25 10:11 51°20.269 2°37.183 10.6 23 17.7 101430 77
2008-08-25 10:12 51°20.273 2°37.205 11.2 14 17.7 101430 77
2008-08-25 10:13 51°20.254 2°37.227 9.8 351 17.8 101430 78
2008-08-25 10:14 51°20.228 2°37.225 12.5 279 17.7 101420 77
2008-08-25 10:15 51°20.208 2°37.192 11.1 278 17.8 101430 76
2008-08-25 10:16 51°20.2 2°37.16 10 277 17.9 101440 77
2008-08-25 10:17 51°20.195 2°37.148 9 283 18 101440 77
2008-08-25 10:18 51°20.198 2°37.16 9.3 357 17.9 101420 74
2008-08-25 10:19 51°20.207 2°37.177 11.1 10 17.9 101430 76
2008-08-25 10:20 51°20.217 2°37.191 10.3 20 17.8 101440 76
2008-08-25 10:21 51°20.201 2°37.218 11.7 277 17.8 101440 77
2008-08-25 10:22 51°20.155 2°37.182 13.2 280 17.8 101440 77
2008-08-25 10:23 51°20.15 2°37.148 12.1 277 17.9 101430 75
2008-08-25 10:24 51°20.163 2°37.137 10.1 278 17.9 101450 74
2008-08-25 10:25 51°20.179 2°37.143 14.2 285 18 101430 75
2008-08-25 10:26 51°20.191 2°37.153 6.4 283 18.1 101430 74
2008-08-25 10:27 51°20.202 2°37.166 6.6 284 18 101440 74
2008-08-25 10:28 51°20.21 2°37.178 7.1 285 18 101440 75
2008-08-25 10:29 51°20.218 2°37.193 7.3 285 18 101440 75
2008-08-25 10:30 51°20.224 2°37.206 7.2 279 18 101440 76
2008-08-25 10:31 51°20.23 2°37.222 7.4 284 18.1 101440 77
2008-08-25 10:32 51°20.236 2°37.236 7.2 281 18 101440 77
2008-08-25 10:33 51°20.241 2°37.251 8.8 283 18 101440 77
2008-08-25 10:34 51°20.247 2°37.267 7.7 280 18.1 101450 77
2008-08-25 10:35 51°20.254 2°37.281 9.7 278 18 101450 76
2008-08-25 10:36 51°20.262 2°37.296 6.9 284 18 101440 75
2008-08-25 10:37 51°20.27 2°37.31 9.8 277 18.1 101450 77
2008-08-25 10:38 51°20.279 2°37.322 6.8 285 18.1 101450 77
2008-08-25 10:39 51°20.29 2°37.335 8.3 286 18.1 101450 77
2008-08-25 10:40 51°20.301 2°37.348 10.3 277 18.1 101460 77
2008-08-25 10:41 51°20.326 2°37.341 13.3 283 18.1 101450 77
2008-08-25 10:42 51°20.359 2°37.312 14.3 283 18.1 101440 76
2008-08-25 10:43 51°20.386 2°37.281 9.8 282 18.1 101440 77
2008-08-25 10:44 51°20.404 2°37.269 10.6 280 18.1 101450 78
2008-08-25 10:45 51°20.419 2°37.272 14.5 285 18.2 101440 78
2008-08-25 10:46 51°20.43 2°37.284 11 280 18.1 101470 78
2008-08-25 10:47 51°20.436 2°37.297 6.9 285 18 101450 77
2008-08-25 10:48 51°20.447 2°37.308 8.9 283 18.1 101450 79
2008-08-25 10:49 51°20.464 2°37.309 6.8 279 18 101450 79
2008-08-25 10:50 51°20.478 2°37.311 8.1 281 18 101450 80
2008-08-25 10:51 51°20.489 2°37.316 11.1 278 18 101450 79
2008-08-25 10:52 51°20.5 2°37.323 7.3 305 18 101440 78
2008-08-25 10:53 51°20.51 2°37.333 7.5 282 18 101450 80
2008-08-25 10:54 51°20.526 2°37.327 10 280 18 101450 79
2008-08-25 10:55 51°20.534 2°37.243 12.9 280 18.1 101430 78
2008-08-25 10:56 51°20.473 2°37.196 14.4 281 18 101420 78
2008-08-25 10:57 51°20.4 2°37.122 14 278 18 101430 79
2008-08-25 10:58 51°20.32 2°36.994 14 332 18 101440 79
2008-08-25 10:59 51°20.256 2°36.904 11.4 344 18 101440 79
2008-08-25 11:00 51°20.208 2°36.897 13.8 279 18 101450 79
2008-08-25 11:01 51°20.171 2°36.897 12.1 345 17.9 101430 80
2008-08-25 11:02 51°20.14 2°36.89 14 282 17.8 101430 80
2008-08-25 11:03 51°20.117 2°36.892 12.1 355 17.7 101430 78
2008-08-25 11:04 51°20.108 2°36.904 10.5 355 17.8 101450 81
2008-08-25 11:05 51°20.109 2°36.918 11 7 17.8 101460 81
2008-08-25 11:06 51°20.115 2°36.933 9.9 18 17.8 101450 83
2008-08-25 11:07 51°20.123 2°36.945 12 20 17.8 101470 81
2008-08-25 11:08 51°20.123 2°36.967 11.8 7 17.7 101470 81
2008-08-25 11:09 51°20.079 2°36.975 12.7 341 17.7 101440 79
2008-08-25 11:10 51°20.051 2°36.897 11.7 306 17.8 101440 80
2008-08-25 11:11 51°20.06 2°36.845 10.2 302 17.9 101420 79
2008-08-25 11:12 51°20.07 2°36.847 10.1 308 18 101440 79
2008-08-25 11:13 51°20.075 2°36.857 6.9 300 18.1 101460 79
2008-08-25 11:14 51°20.079 2°36.867 9.5 287 18 101460 78
2008-08-25 11:15 51°20.081 2°36.877 10.3 53 18 101460 78
2008-08-25 11:16 51°20.086 2°36.885 8.2 285 18 101450 79
2008-08-25 11:17 51°20.092 2°36.893 8.9 301 18 101450 80
2008-08-25 11:18 51°20.095 2°36.903 11 305 18 101450 80
2008-08-25 11:19 51°20.097 2°36.915 7.8 301 18 101460 80
2008-08-25 11:20 51°20.101 2°36.928 7.2 306 18 101490 80
2008-08-25 11:21 51°20.105 2°36.939 8.5 301 18 101470 80
2008-08-25 11:22 51°20.111 2°36.948 10 308 18 101490 80
2008-08-25 11:23 51°20.13 2°36.937 12.5 303 18 101480 80
2008-08-25 11:24 51°20.145 2°36.881 9.4 305 18.1 101450 80
2008-08-25 11:25 51°20.131 2°36.821 12.9 279 18.1 101450 79
2008-08-25 11:26 51°20.093 2°36.81 10.8 356 18.1 101440 79
2008-08-25 11:27 51°20.074 2°36.824 11.3 6 18 101460 80
2008-08-25 11:28 51°20.068 2°36.836 9.6 7 17.9 101450 81
2008-08-25 11:29 51°20.072 2°36.846 12.9 12 17.9 101460 81
2008-08-25 11:30 51°20.076 2°36.856 9.1 18 17.9 101460 82
2008-08-25 11:31 51°20.079 2°36.867 12.1 18 18 101460 83
2008-08-25 11:32 51°20.082 2°36.877 10.4 19 17.9 101460 81
2008-08-25 11:33 51°20.087 2°36.884 9.7 13 18 101470 82
2008-08-25 11:34 51°20.092 2°36.891 10.2 20 17.9 101460 81
2008-08-25 11:35 51°20.095 2°36.9 11.3 17 17.9 101470 81
2008-08-25 11:36 51°20.099 2°36.908 10.2 18 17.9 101470 81
2008-08-25 11:37 51°20.103 2°36.914 10.7 14 17.9 101470 81
2008-08-25 11:38 51°20.084 2°36.957 10 32 18 101470 82
2008-08-25 11:39 51°20.043 2°37.128 10 16 17.9 101470 82
2008-08-25 11:40 51°19.953 2°37.364 7.6 8 18 101480 83
2008-08-25 11:41 51°19.85 2°37.595 12.2 13 17.9 101470 82
2008-08-25 11:42 51°19.749 2°37.813 9.7 12 18 101470 83
2008-08-25 11:43 51°19.692 2°37.946 11.1 21 18 101480 84
2008-08-25 11:44 51°19.651 2°38.025 8.7 19 18 101470 83
2008-08-25 11:45 51°19.613 2°38.168 9.9 24 18 101470 83
2008-08-25 11:46 51°19.545 2°38.341 11.6 15 18 101480 83
2008-08-25 11:47 51°19.468 2°38.523 10.8 17 18 101480 82
2008-08-25 11:48 51°19.39 2°38.708 11.1 16 18 101480 82
2008-08-25 11:49 51°19.313 2°38.895 9.6 17 18 101480 82
2008-08-25 11:50 51°19.235 2°39.082 11.6 16 18.1 101480 83
2008-08-25 11:51 51°19.159 2°39.27 9.8 14 18 101480 83
2008-08-25 11:52 51°19.084 2°39.46 11.3 15 18 101480 83
2008-08-25 11:53 51°19.007 2°39.647 8.9 13 18 101490 82
2008-08-25 11:54 51°18.93 2°39.834 9.6 17 18 101490 82
2008-08-25 11:55 51°18.851 2°40.018 11.6 14 18.1 101490 83
2008-08-25 11:56 51°18.774 2°40.201 10.5 18 18 101490 81
2008-08-25 11:57 51°18.696 2°40.381 11.3 18 18.1 101490 81
2008-08-25 11:58 51°18.62 2°40.556 8.5 16 18.1 101500 81
2008-08-25 11:59 51°18.545 2°40.733 10.6 20 18.1 101500 81
2008-08-25 12:00 51°18.465 2°40.907 11.2 15 18.1 101500 79
2008-08-25 12:01 51°18.387 2°41.084 10.7 17 18.1 101500 80
2008-08-25 12:02 51°18.311 2°41.258 10.8 16 18.2 101500 81
2008-08-25 12:03 51°18.229 2°41.438 9.8 14 18.2 101500 80
2008-08-25 12:04 51°18.145 2°41.615 10.5 9 18.2 101500 81
2008-08-25 12:05 51°18.057 2°41.788 8.8 10 18.1 101500 80
2008-08-25 12:06 51°17.969 2°41.96 11.2 12 18.1 101500 80
2008-08-25 12:07 51°17.881 2°42.13 11.2 18 18.1 101500 81
2008-08-25 12:08 51°17.793 2°42.302 10.3 15 18.1 101510 81
2008-08-25 12:09 51°17.706 2°42.473 11 11 18.1 101500 80
2008-08-25 12:10 51°17.618 2°42.645 9.1 12 18.1 101510 81
2008-08-25 12:11 51°17.532 2°42.816 10.9 13 18.1 101500 81
2008-08-25 12:12 51°17.447 2°42.983 9.6 18 18.1 101500 80
2008-08-25 12:13 51°17.363 2°43.147 10.5 15 18.1 101500 80
2008-08-25 12:14 51°17.277 2°43.311 9.5 15 18.2 101500 81
2008-08-25 12:15 51°17.19 2°43.479 9.3 12 18.2 101500 81
2008-08-25 12:16 51°17.103 2°43.649 9.6 16 18.2 101500 81
2008-08-25 12:17 51°17.015 2°43.819 8 9 18.2 101500 81
2008-08-25 12:18 51°16.928 2°43.991 9.9 12 18.2 101510 82
2008-08-25 12:19 51°16.839 2°44.163 7.6 11 18.2 101510 81
2008-08-25 12:20 51°16.75 2°44.337 10.3 13 18.3 101510 81
2008-08-25 12:21 51°16.661 2°44.512 10.4 16 18.3 101510 81
2008-08-25 12:22 51°16.573 2°44.687 8.8 12 18.3 101510 82
2008-08-25 12:23 51°16.487 2°44.863 7.4 16 18.3 101510 81
2008-08-25 12:24 51°16.413 2°45.053 8 15 18.4 101510 82
2008-08-25 12:25 51°16.341 2°45.246 5.6 17 18.4 101510 82
2008-08-25 12:26 51°16.271 2°45.44 6.9 18 18.4 101520 82
2008-08-25 12:27 51°16.202 2°45.634 8.3 13 18.5 101520 83
2008-08-25 12:28 51°16.134 2°45.827 8.5 11 18.4 101510 82
2008-08-25 12:29 51°16.067 2°46.019 7.3 19 18.4 101510 81
2008-08-25 12:30 51°16.032 2°46.228 9 28 18.4 101510 79
2008-08-25 12:31 51°16.005 2°46.439 7.8 25 18.4 101520 79
2008-08-25 12:32 51°15.978 2°46.648 7.6 27 18.5 101520 78
2008-08-25 12:33 51°15.951 2°46.857 7.1 26 18.5 101520 78
2008-08-25 12:34 51°15.92 2°47.065 6.4 20 18.5 101520 77
2008-08-25 12:35 51°15.891 2°47.273 7.7 29 18.5 101520 78
2008-08-25 12:36 51°15.864 2°47.481 7.8 24 18.5 101520 77
2008-08-25 12:37 51°15.834 2°47.689 7.6 26 18.5 101510 77
2008-08-25 12:38 51°15.804 2°47.898 7.6 23 18.5 101520 77
2008-08-25 12:39 51°15.774 2°48.108 6.3 25 18.5 101520 77
2008-08-25 12:40 51°15.743 2°48.317 7.4 26 18.6 101510 78
2008-08-25 12:41 51°15.712 2°48.527 7.2 25 18.6 101510 78
2008-08-25 12:42 51°15.683 2°48.737 6.4 26 18.6 101510 77
2008-08-25 12:43 51°15.652 2°48.949 6.2 26 18.6 101520 77
2008-08-25 12:44 51°15.62 2°49.16 6.8 23 18.6 101520 79
2008-08-25 12:45 51°15.588 2°49.369 5.9 20 18.5 101520 78
2008-08-25 12:46 51°15.556 2°49.578 5.9 19 18.6 101520 80
2008-08-25 12:47 51°15.528 2°49.787 6 31 18.6 101520 80
2008-08-25 12:48 51°15.524 2°49.999 7.4 33 18.6 101520 81
2008-08-25 12:49 51°15.514 2°50.211 5.4 28 18.5 101520 80
2008-08-25 12:50 51°15.505 2°50.423 6.3 35 18.6 101530 81
2008-08-25 12:51 51°15.493 2°50.635 7.7 27 18.5 101530 79
2008-08-25 12:52 51°15.481 2°50.848 6.4 26 18.6 101530 80
2008-08-25 12:53 51°15.469 2°51.06 6.6 28 18.6 101520 79
2008-08-25 12:54 51°15.448 2°51.272 7.7 29 18.6 101530 78
2008-08-25 12:55 51°15.404 2°51.477 8 22 18.6 101520 78
2008-08-25 12:56 51°15.351 2°51.677 7.6 23 18.6 101520 77
2008-08-25 12:57 51°15.3 2°51.877 9.5 22 18.6 101520 77
2008-08-25 12:58 51°15.25 2°52.079 6.6 20 18.6 101520 78
2008-08-25 12:59 51°15.2 2°52.282 7.9 19 18.6 101530 78
2008-08-25 13:00 51°15.15 2°52.484 6.7 21 18.6 101520 78
2008-08-25 13:01 51°15.102 2°52.689 7.5 26 18.6 101530 77
2008-08-25 13:02 51°15.052 2°52.894 7.8 23 18.6 101520 77
2008-08-25 13:03 51°15.003 2°53.1 6.2 25 18.6 101530 78
2008-08-25 13:04 51°14.953 2°53.306 6.5 20 18.6 101530 78
2008-08-25 13:05 51°14.904 2°53.499 8.7 23 18.6 101530 79
2008-08-25 13:06 51°14.854 2°53.704 8.1 16 18.6 101530 79
2008-08-25 13:07 51°14.802 2°53.915 9.1 19 18.6 101520 77
2008-08-25 13:08 51°14.743 2°54.123 8.4 20 18.7 101520 76
2008-08-25 13:09 51°14.678 2°54.327 8.4 18 18.7 101520 76
2008-08-25 13:10 51°14.607 2°54.526 8.7 19 18.7 101520 75
2008-08-25 13:11 51°14.529 2°54.717 10.2 19 18.7 101520 74
2008-08-25 13:12 51°14.443 2°54.9 9 14 18.8 101520 75
2008-08-25 13:13 51°14.356 2°55.088 9.5 14 18.8 101520 75
2008-08-25 13:14 51°14.26 2°55.264 8 10 18.8 101530 75
2008-08-25 13:15 51°14.156 2°55.39 3.8 283 18.8 101530 72
2008-08-25 13:16 51°14.07 2°55.465 10.7 1 19.1 101530 69
2008-08-25 13:17 51°13.966 2°55.539 7.8 -999 19.2 101540 68
2008-08-25 13:18 51°13.843 2°55.627 7.3 349 19.3 101530 67
2008-08-25 13:19 51°13.752 2°55.724 3.4 347 19.3 101540 67
2008-08-25 13:20 51°13.699 2°55.823 7.9 5 19.4 101550 68
2008-08-25 13:21 51°13.655 2°55.92 5.1 16 19.3 101540 67
2008-08-25 13:22 51°13.632 2°55.999 6.6 42 19.3 101550 67
2008-08-25 13:23 51°13.624 2°56.042 0.8 85 19.3 101550 68